Gdansk, Poland
Current Conditions -  °F | °C
As of 10:00 AM on Monday 26 Jan 2015 (Local Time) from EPGD Reporting Station
Broken Clouds Broken Clouds  
Wind Chill: 32°   Ceiling: 2300
Heat Index: 32°   Visibility: 6mi
Dew Point: 28°   Wind: 3mph
Humidity: 87%   Direction: 220°SW
Pressure: 30.18"   Gusts: NA
Location:  54.36°N, 18.64°E
Report Text: EPGD 260800Z 22003KT 190V250 9999 BKN023 M00/M02 Q1022
Loading
Personal Weather Stations






























Interactive Weather Map New forecast layout! Learn more

10-Day Weather Forecast

Advertisements
Track Severe Weather on mobile